createdAt,value
2018-06-27T00:01:00.096Z,17.10
2018-06-27T00:05:59.260Z,17.00
2018-06-27T00:08:28.356Z,16.90
2018-06-27T00:10:57.323Z,16.90
2018-06-27T00:13:26.264Z,16.80
2018-06-27T00:15:56.608Z,16.70
2018-06-27T00:18:25.551Z,16.80
2018-06-27T00:20:54.995Z,16.70
2018-06-27T00:23:23.936Z,16.60
2018-06-27T00:25:52.849Z,16.60
2018-06-27T00:28:21.911Z,16.40
2018-06-27T00:30:52.319Z,16.40
2018-06-27T00:33:21.311Z,16.30
2018-06-27T00:35:50.240Z,16.30
2018-06-27T00:38:19.285Z,16.20
2018-06-27T00:40:48.520Z,16.20
2018-06-27T00:43:19.100Z,16.10
2018-06-27T00:45:48.125Z,16.10
2018-06-27T00:48:17.176Z,16.10
2018-06-27T00:50:46.274Z,16.10
2018-06-27T00:53:16.884Z,16.00
2018-06-27T00:55:45.951Z,16.10
2018-06-27T00:58:16.356Z,16.10
2018-06-27T01:00:45.392Z,16.10
2018-06-27T01:03:16.205Z,16.10
2018-06-27T01:05:45.240Z,16.00
2018-06-27T01:20:09.652Z,15.60
2018-06-27T01:22:38.944Z,15.60
2018-06-27T01:25:07.887Z,15.50
2018-06-27T01:27:38.103Z,15.50
2018-06-27T01:30:07.015Z,15.40
2018-06-27T01:32:36.111Z,15.30
2018-06-27T01:35:05.026Z,15.30
2018-06-27T01:37:34.047Z,15.20
2018-06-27T01:40:02.977Z,15.30
2018-06-27T01:42:33.492Z,15.30
2018-06-27T01:45:03.518Z,15.40
2018-06-27T01:47:32.802Z,15.40
2018-06-27T01:50:01.761Z,15.40
2018-06-27T01:52:33.002Z,15.40
2018-06-27T01:55:01.918Z,15.50
2018-06-27T01:57:31.295Z,15.40
2018-06-27T02:00:01.688Z,15.30
2018-06-27T02:02:32.023Z,15.30
2018-06-27T02:05:03.035Z,15.20
2018-06-27T02:07:32.057Z,15.20
2018-06-27T02:10:03.051Z,15.30
2018-06-27T02:12:32.096Z,15.20
2018-06-27T02:15:01.043Z,15.10
2018-06-27T02:17:31.475Z,15.10
2018-06-27T02:20:00.609Z,15.10
2018-06-27T02:22:29.955Z,15.00
2018-06-27T02:25:00.482Z,15.00
2018-06-27T02:27:29.493Z,15.00
2018-06-27T02:29:58.363Z,15.00
2018-06-27T02:32:27.704Z,15.00
2018-06-27T02:34:56.683Z,14.90
2018-06-27T02:37:25.607Z,14.90
2018-06-27T02:39:55.903Z,15.00
2018-06-27T02:42:24.924Z,15.00
2018-06-27T02:44:55.036Z,15.00
2018-06-27T02:47:23.935Z,15.10
2018-06-27T02:49:52.956Z,15.10
2018-06-27T02:52:23.342Z,15.10
2018-06-27T02:54:52.244Z,15.10
2018-06-27T02:57:21.387Z,15.10
2018-06-27T02:59:51.436Z,15.20
2018-06-27T03:02:22.034Z,15.20
2018-06-27T03:04:52.260Z,15.20
2018-06-27T03:07:21.283Z,15.20
2018-06-27T03:09:59.422Z,15.30
2018-06-27T03:12:28.436Z,15.30
2018-06-27T03:14:57.371Z,15.20
2018-06-27T03:17:27.703Z,15.20
2018-06-27T03:19:56.643Z,15.10
2018-06-27T03:22:27.871Z,15.20
2018-06-27T03:24:56.778Z,15.20
2018-06-27T03:27:25.812Z,15.20
2018-06-27T03:29:55.174Z,15.20
2018-06-27T03:32:24.430Z,15.20
2018-06-27T03:34:53.400Z,15.10
2018-06-27T03:37:22.599Z,15.10
2018-06-27T03:39:53.443Z,15.10
2018-06-27T03:42:22.456Z,15.20
2018-06-27T03:44:52.651Z,15.20
2018-06-27T03:47:21.810Z,15.10
2018-06-27T03:49:50.704Z,15.20
2018-06-27T03:52:21.242Z,15.20
2018-06-27T03:54:50.145Z,15.20
2018-06-27T03:57:19.072Z,15.30
2018-06-27T03:59:49.734Z,15.30
2018-06-27T04:02:20.458Z,15.30
2018-06-27T04:04:50.954Z,15.30
2018-06-27T04:07:20.052Z,15.30
2018-06-27T04:09:57.127Z,15.30
2018-06-27T04:12:26.780Z,15.20
2018-06-27T04:14:56.211Z,15.20
2018-06-27T04:17:26.820Z,15.30
2018-06-27T04:19:57.559Z,15.20
2018-06-27T04:22:31.196Z,15.30
2018-06-27T04:25:00.491Z,15.30
2018-06-27T04:27:30.702Z,15.40
2018-06-27T04:30:00.799Z,15.40
2018-06-27T04:32:29.707Z,15.40
2018-06-27T04:35:00.110Z,15.40
2018-06-27T04:37:29.024Z,15.50
2018-06-27T04:39:59.048Z,15.50
2018-06-27T04:42:28.046Z,15.50
2018-06-27T04:44:58.240Z,15.50
2018-06-27T04:49:56.322Z,15.60
2018-06-27T04:52:26.549Z,15.60
2018-06-27T04:54:55.732Z,15.70
2018-06-27T04:57:24.545Z,15.70
2018-06-27T04:59:55.164Z,15.80
2018-06-27T05:02:25.515Z,15.90
2018-06-27T05:07:24.324Z,16.10
2018-06-27T05:10:00.403Z,16.10
2018-06-27T05:12:29.339Z,16.20
2018-06-27T05:14:58.440Z,16.20
2018-06-27T05:19:58.089Z,16.30
2018-06-27T05:22:27.294Z,16.40
2018-06-27T05:24:56.368Z,16.50
2018-06-27T05:27:25.467Z,16.50
2018-06-27T05:29:54.411Z,16.50
2018-06-27T05:32:23.381Z,16.50
2018-06-27T05:34:52.483Z,16.60
2018-06-27T05:37:21.522Z,16.60
2018-06-27T05:39:52.170Z,16.70
2018-06-27T05:42:21.103Z,16.70
2018-06-27T05:44:57.855Z,16.90
2018-06-27T05:47:26.775Z,17.00
2018-06-27T05:49:56.073Z,17.10
2018-06-27T05:52:26.560Z,17.20
2018-06-27T05:55:01.070Z,17.30
2018-06-27T05:57:30.021Z,17.40
2018-06-27T06:00:00.624Z,17.50
2018-06-27T06:02:37.503Z,17.60
2018-06-27T06:05:08.156Z,17.60
2018-06-27T06:07:37.078Z,17.70
2018-06-27T06:10:07.554Z,17.80
2018-06-27T06:12:36.534Z,17.90
2018-06-27T06:15:06.978Z,17.90
2018-06-27T06:17:37.520Z,18.00
2018-06-27T06:20:06.818Z,18.00
2018-06-27T06:22:35.733Z,18.10
2018-06-27T06:25:05.179Z,18.10
2018-06-27T06:27:34.238Z,18.20
2018-06-27T06:30:03.147Z,18.30
2018-06-27T06:32:32.426Z,18.40
2018-06-27T06:37:30.052Z,18.50
2018-06-27T06:40:00.372Z,18.60
2018-06-27T06:42:29.319Z,18.70
2018-06-27T06:44:58.348Z,18.80
2018-06-27T06:47:28.719Z,18.80
2018-06-27T06:49:57.747Z,18.90
2018-06-27T06:52:28.139Z,19.00
2018-06-27T06:54:57.180Z,19.00
2018-06-27T06:57:26.116Z,19.00
2018-06-27T06:59:56.456Z,19.20
2018-06-27T07:04:56.583Z,19.70
2018-06-27T07:07:25.459Z,20.10
2018-06-27T07:10:00.562Z,20.10
2018-06-27T07:12:30.960Z,20.40
2018-06-27T07:14:59.971Z,20.50
2018-06-27T07:17:30.360Z,20.40
2018-06-27T07:19:59.247Z,20.60
2018-06-27T07:22:28.163Z,20.60
2018-06-27T07:24:57.181Z,20.80
2018-06-27T07:27:26.143Z,21.10
2018-06-27T07:29:55.055Z,21.20
2018-06-27T07:32:24.336Z,21.10
2018-06-27T07:34:53.566Z,21.30
2018-06-27T07:37:22.864Z,21.50
2018-06-27T07:39:53.320Z,21.80
2018-06-27T07:42:22.353Z,22.00
2018-06-27T07:44:51.649Z,22.20
2018-06-27T07:47:22.310Z,22.10
2018-06-27T07:52:21.923Z,22.60
2018-06-27T07:54:50.847Z,22.90
2018-06-27T07:57:19.880Z,22.90
2018-06-27T07:59:50.236Z,22.70
2018-06-27T08:02:20.713Z,23.00
2018-06-27T08:04:51.195Z,23.20
2018-06-27T08:12:24.841Z,23.10
2018-06-27T08:14:53.755Z,23.20
2018-06-27T08:17:24.251Z,23.50
2018-06-27T08:19:53.460Z,23.80
2018-06-27T08:24:51.047Z,23.90
2018-06-27T08:27:20.055Z,23.90
2018-06-27T08:29:48.963Z,23.40
2018-06-27T08:32:17.984Z,23.20
2018-06-27T08:34:46.885Z,23.00
2018-06-27T08:37:16.477Z,22.90
2018-06-27T08:39:46.693Z,23.10
2018-06-27T08:42:15.717Z,23.50
2018-06-27T08:44:44.820Z,23.60
2018-06-27T08:47:15.663Z,23.60
2018-06-27T08:49:44.585Z,23.60
2018-06-27T08:52:22.668Z,23.80
2018-06-27T08:54:51.583Z,24.00
2018-06-27T08:57:20.852Z,24.20
2018-06-27T08:59:50.972Z,24.20
2018-06-27T09:02:21.349Z,24.20
2018-06-27T09:04:51.646Z,24.20
2018-06-27T09:09:59.465Z,24.10
2018-06-27T09:12:28.392Z,23.70
2018-06-27T09:14:57.324Z,23.00
2018-06-27T09:17:28.010Z,23.70
2018-06-27T09:19:56.924Z,23.70
2018-06-27T09:22:25.859Z,23.50
2018-06-27T09:24:55.027Z,23.80
2018-06-27T09:27:24.058Z,23.60
2018-06-27T09:29:53.012Z,23.80
2018-06-27T09:32:22.043Z,24.00
2018-06-27T09:34:50.973Z,24.20
2018-06-27T09:37:20.324Z,24.40
2018-06-27T09:42:19.613Z,24.50
2018-06-27T09:44:48.547Z,24.30
2018-06-27T09:47:19.060Z,24.30
2018-06-27T09:49:47.964Z,24.20
2018-06-27T09:52:25.707Z,23.90
2018-06-27T09:54:56.418Z,23.70
2018-06-27T09:57:25.965Z,23.60
2018-06-27T09:59:56.435Z,23.70
2018-06-27T10:02:27.675Z,23.80
2018-06-27T10:04:58.828Z,23.90
2018-06-27T10:07:28.936Z,24.00
2018-06-27T10:10:01.046Z,24.00
2018-06-27T10:12:30.035Z,24.10
2018-06-27T10:14:58.929Z,23.80
2018-06-27T10:17:29.331Z,23.80
2018-06-27T10:22:26.978Z,23.50
2018-06-27T10:24:55.876Z,23.70
2018-06-27T10:27:24.816Z,23.60
2018-06-27T10:29:54.255Z,23.50
2018-06-27T10:32:23.395Z,23.60
2018-06-27T10:34:52.587Z,23.60
2018-06-27T10:37:22.547Z,23.30
2018-06-27T10:39:52.797Z,23.30
2018-06-27T10:42:21.701Z,23.40
2018-06-27T10:44:50.621Z,23.50
2018-06-27T10:47:21.367Z,23.70
2018-06-27T10:49:50.375Z,23.80
2018-06-27T10:52:28.016Z,23.80
2018-06-27T10:54:56.904Z,23.70
2018-06-27T10:57:25.920Z,23.80
2018-06-27T10:59:56.460Z,23.90
2018-06-27T11:02:27.438Z,23.80
2018-06-27T11:04:58.006Z,23.80
2018-06-27T11:07:26.880Z,23.80
2018-06-27T11:10:01.361Z,23.60
2018-06-27T11:14:58.951Z,23.60
2018-06-27T11:17:29.976Z,23.90
2018-06-27T11:19:59.271Z,24.00
2018-06-27T11:22:28.205Z,23.80
2018-06-27T11:24:57.118Z,23.60
2018-06-27T11:27:26.564Z,23.50
2018-06-27T11:29:55.570Z,23.50
2018-06-27T11:34:53.873Z,23.30
2018-06-27T11:37:22.768Z,23.30
2018-06-27T11:39:53.776Z,23.20
2018-06-27T11:42:22.789Z,23.30
2018-06-27T11:44:51.722Z,23.40
2018-06-27T11:47:22.577Z,23.50
2018-06-27T11:49:51.556Z,23.30
2018-06-27T11:52:30.223Z,23.30
2018-06-27T11:57:33.554Z,23.60
2018-06-27T12:02:35.412Z,23.80
2018-06-27T12:05:06.239Z,24.00
2018-06-27T12:07:35.160Z,24.00
2018-06-27T12:10:05.607Z,23.80
2018-06-27T12:12:34.637Z,23.60
2018-06-27T12:15:04.142Z,23.30
2018-06-27T12:17:34.403Z,23.10
2018-06-27T12:20:03.475Z,22.90
2018-06-27T12:22:32.461Z,22.90
2018-06-27T12:25:01.535Z,22.90
2018-06-27T12:27:30.555Z,23.10
2018-06-27T12:29:59.565Z,23.20
2018-06-27T12:32:28.535Z,23.20
2018-06-27T12:34:57.868Z,23.10
2018-06-27T12:37:26.847Z,23.00
2018-06-27T12:39:57.391Z,22.90
2018-06-27T12:42:26.325Z,22.80
2018-06-27T12:44:55.579Z,22.70
2018-06-27T12:47:24.839Z,22.80
2018-06-27T12:49:55.487Z,23.00
2018-06-27T12:52:31.773Z,22.90
2018-06-27T12:55:02.643Z,22.90
2018-06-27T12:57:32.914Z,22.70
2018-06-27T13:00:04.102Z,22.80
2018-06-27T13:02:35.044Z,22.80
2018-06-27T13:05:05.896Z,22.90
2018-06-27T13:07:34.828Z,22.90
2018-06-27T13:10:06.628Z,22.90
2018-06-27T13:15:04.770Z,23.10
2018-06-27T13:17:35.339Z,23.10
2018-06-27T13:20:04.695Z,23.30
2018-06-27T13:22:33.612Z,23.30
2018-06-27T13:25:02.996Z,23.40
2018-06-27T13:27:31.911Z,23.40
2018-06-27T13:30:00.944Z,23.30
2018-06-27T13:32:29.872Z,23.20
2018-06-27T13:34:59.343Z,23.10
2018-06-27T13:37:28.258Z,23.00
2018-06-27T13:39:58.708Z,22.90
2018-06-27T13:42:27.829Z,22.80
2018-06-27T13:44:56.767Z,22.80
2018-06-27T13:47:25.804Z,22.80
2018-06-27T13:49:56.131Z,22.80
2018-06-27T13:52:33.968Z,22.80
2018-06-27T13:55:03.048Z,22.80
2018-06-27T13:57:33.490Z,22.70
2018-06-27T14:00:04.356Z,22.80
2018-06-27T14:02:35.008Z,22.90
2018-06-27T14:05:05.945Z,23.00
2018-06-27T14:07:34.856Z,22.80
2018-06-27T14:10:05.868Z,22.80
2018-06-27T14:12:36.224Z,22.80
2018-06-27T14:15:05.379Z,22.70
2018-06-27T14:17:35.542Z,22.70
2018-06-27T14:20:04.852Z,22.60
2018-06-27T14:22:33.999Z,22.60
2018-06-27T14:25:03.022Z,22.50
2018-06-27T14:27:32.062Z,22.50
2018-06-27T14:30:00.972Z,22.50
2018-06-27T14:32:30.122Z,22.50
2018-06-27T14:34:59.009Z,22.50
2018-06-27T14:37:27.925Z,22.50
2018-06-27T14:39:58.406Z,22.60
2018-06-27T14:42:27.490Z,22.60
2018-06-27T14:44:56.536Z,22.60
2018-06-27T14:47:25.555Z,22.70
2018-06-27T14:49:55.923Z,22.70
2018-06-27T14:57:29.684Z,22.90
2018-06-27T14:59:59.939Z,23.00
2018-06-27T15:02:30.476Z,22.90
2018-06-27T15:05:00.804Z,23.00
2018-06-27T15:10:02.784Z,22.90
2018-06-27T15:12:31.815Z,22.80
2018-06-27T15:15:00.943Z,22.70
2018-06-27T15:17:31.543Z,22.70
2018-06-27T15:20:00.488Z,22.80
2018-06-27T15:22:29.423Z,22.90
2018-06-27T15:24:58.887Z,22.90
2018-06-27T15:27:28.067Z,22.90
2018-06-27T15:29:56.991Z,22.90
2018-06-27T15:32:26.009Z,22.80
2018-06-27T15:34:55.241Z,22.80
2018-06-27T15:37:24.958Z,22.80
2018-06-27T15:39:55.118Z,22.90
2018-06-27T15:42:24.176Z,22.90
2018-06-27T15:44:53.172Z,22.90
2018-06-27T15:47:22.368Z,23.00
2018-06-27T15:49:52.937Z,23.10
2018-06-27T15:52:23.428Z,23.00
2018-06-27T15:54:53.754Z,23.10
2018-06-27T15:57:22.803Z,23.20
2018-06-27T15:59:55.183Z,23.20
2018-06-27T16:02:25.856Z,23.20
2018-06-27T16:04:56.738Z,23.20
2018-06-27T16:10:01.599Z,23.30
2018-06-27T16:12:30.575Z,23.20
2018-06-27T16:14:59.735Z,23.20
2018-06-27T16:17:30.320Z,23.10
2018-06-27T16:19:59.183Z,23.20
2018-06-27T16:22:28.380Z,23.10
2018-06-27T16:24:57.348Z,23.00
2018-06-27T16:27:26.700Z,22.70
2018-06-27T16:29:55.850Z,22.60
2018-06-27T16:32:25.253Z,22.50
2018-06-27T16:34:54.154Z,22.40
2018-06-27T16:37:23.551Z,22.40
2018-06-27T16:39:54.106Z,22.30
2018-06-27T16:42:23.149Z,22.20
2018-06-27T16:44:52.184Z,22.20
2018-06-27T16:47:21.682Z,22.20
2018-06-27T16:49:52.361Z,22.10
2018-06-27T16:52:21.396Z,22.10
2018-06-27T16:54:51.959Z,22.10
2018-06-27T16:57:20.917Z,22.00
2018-06-27T16:59:51.199Z,22.00
2018-06-27T17:02:21.429Z,21.90
2018-06-27T17:04:52.045Z,21.90
2018-06-27T17:07:21.222Z,21.80
2018-06-27T17:09:50.119Z,21.70
2018-06-27T17:12:20.970Z,21.70
2018-06-27T17:14:50.273Z,21.60
2018-06-27T17:17:20.568Z,21.60
2018-06-27T17:19:49.479Z,21.60
2018-06-27T17:22:18.639Z,21.60
2018-06-27T17:24:47.568Z,21.70
2018-06-27T17:27:16.641Z,21.70
2018-06-27T17:29:45.557Z,21.70
2018-06-27T17:32:14.941Z,21.70
2018-06-27T17:34:44.096Z,21.70
2018-06-27T17:37:13.047Z,21.70
2018-06-27T17:39:44.312Z,21.70
2018-06-27T17:42:13.259Z,21.70
2018-06-27T17:44:42.252Z,21.60
2018-06-27T17:47:12.429Z,21.50
2018-06-27T17:51:16.434Z,21.50
2018-06-27T17:53:47.009Z,21.50
2018-06-27T17:56:15.920Z,21.50
2018-06-27T17:58:46.323Z,21.40
2018-06-27T18:01:15.346Z,21.30
2018-06-27T18:03:46.119Z,21.30
2018-06-27T18:06:16.654Z,21.20
2018-06-27T18:08:45.775Z,21.20
2018-06-27T18:11:16.901Z,21.20
2018-06-27T18:16:16.719Z,21.20
2018-06-27T18:18:46.027Z,21.10
2018-06-27T18:21:14.997Z,21.00
2018-06-27T18:23:44.068Z,21.00
2018-06-27T18:26:13.676Z,20.90
2018-06-27T18:28:42.786Z,20.80
2018-06-27T18:31:11.707Z,20.80
2018-06-27T18:33:41.119Z,20.80
2018-06-27T18:36:10.045Z,20.80
2018-06-27T18:41:14.599Z,20.70
2018-06-27T18:43:47.021Z,20.70
2018-06-27T18:48:44.538Z,20.60
2018-06-27T18:51:16.670Z,20.60
2018-06-27T18:53:47.383Z,20.60
2018-06-27T18:56:16.331Z,20.50
2018-06-27T18:58:46.951Z,20.50
2018-06-27T19:03:46.043Z,20.50
2018-06-27T19:08:46.280Z,20.50
2018-06-27T19:11:16.983Z,20.50
2018-06-27T19:13:46.113Z,20.40
2018-06-27T19:16:17.996Z,20.40
2018-06-27T19:18:47.580Z,20.40
2018-06-27T19:21:16.511Z,20.40
2018-06-27T19:23:45.539Z,20.30
2018-06-27T19:26:15.181Z,20.30
2018-06-27T19:28:44.525Z,20.30
2018-06-27T19:31:13.420Z,20.20
2018-06-27T19:33:43.026Z,20.30
2018-06-27T19:36:12.113Z,20.20
2018-06-27T19:38:50.355Z,20.20
2018-06-27T19:41:21.268Z,20.10
2018-06-27T19:43:51.668Z,20.10
2018-06-27T19:46:20.603Z,20.10
2018-06-27T19:48:49.916Z,20.00
2018-06-27T19:51:20.614Z,20.00
2018-06-27T19:53:51.264Z,19.90
2018-06-27T19:56:20.168Z,19.90
2018-06-27T19:58:50.848Z,19.90
2018-06-27T20:03:50.540Z,19.70
2018-06-27T20:06:21.211Z,19.70
2018-06-27T20:08:50.134Z,19.50
2018-06-27T20:11:21.669Z,19.50
2018-06-27T20:13:50.761Z,19.50
2018-06-27T20:16:20.956Z,19.40
2018-06-27T20:18:50.044Z,19.40
2018-06-27T20:21:19.351Z,19.30
2018-06-27T20:23:48.203Z,19.30
2018-06-27T20:26:17.226Z,19.20
2018-06-27T20:28:46.286Z,19.10
2018-06-27T20:31:15.607Z,19.00
2018-06-27T20:33:44.848Z,19.00
2018-06-27T20:36:13.753Z,18.90
2018-06-27T20:38:59.052Z,18.90
2018-06-27T20:41:28.131Z,18.80
2018-06-27T20:43:57.112Z,18.80
2018-06-27T20:46:26.438Z,18.70
2018-06-27T20:48:55.404Z,18.70
2018-06-27T20:51:25.910Z,18.70
2018-06-27T20:53:56.271Z,18.70
2018-06-27T20:56:25.255Z,18.70
2018-06-27T20:58:55.679Z,18.70
2018-06-27T21:01:24.986Z,18.70
2018-06-27T21:03:55.264Z,18.60
2018-06-27T21:06:25.866Z,18.60
2018-06-27T21:08:55.004Z,18.60
2018-06-27T21:11:25.718Z,18.60
2018-06-27T21:13:54.871Z,18.40
2018-06-27T21:16:25.646Z,18.50
2018-06-27T21:18:54.643Z,18.40
2018-06-27T21:21:23.688Z,18.40
2018-06-27T21:23:52.683Z,18.30
2018-06-27T21:26:21.748Z,18.30
2018-06-27T21:28:50.728Z,18.20
2018-06-27T21:31:19.765Z,18.10
2018-06-27T21:33:48.739Z,18.10
2018-06-27T21:36:18.187Z,18.00
2018-06-27T21:38:52.045Z,18.00
2018-06-27T21:41:21.045Z,17.80
2018-06-27T21:43:50.033Z,17.80
2018-06-27T21:46:19.340Z,17.70
2018-06-27T21:48:48.268Z,17.70
2018-06-27T21:51:33.437Z,17.70
2018-06-27T21:54:03.551Z,17.80
2018-06-27T21:56:32.852Z,17.70
2018-06-27T21:59:03.128Z,17.80
2018-06-27T22:01:32.212Z,17.80
2018-06-27T22:04:11.840Z,17.70
2018-06-27T22:06:40.787Z,17.70
2018-06-27T22:09:11.173Z,17.60
2018-06-27T22:14:10.413Z,17.50
2018-06-27T22:16:40.810Z,17.40
2018-06-27T22:19:09.727Z,17.40
2018-06-27T22:21:39.704Z,17.30
2018-06-27T22:24:08.595Z,17.20
2018-06-27T22:26:37.898Z,17.20
2018-06-27T22:29:07.198Z,17.30
2018-06-27T22:31:36.320Z,17.30
2018-06-27T22:34:10.298Z,17.30
2018-06-27T22:36:39.601Z,17.10
2018-06-27T22:41:40.527Z,17.20
2018-06-27T22:44:09.720Z,17.10
2018-06-27T22:46:38.951Z,17.00
2018-06-27T22:51:36.804Z,16.80
2018-06-27T22:54:07.027Z,16.80
2018-06-27T22:56:36.189Z,16.80
2018-06-27T22:59:07.225Z,16.70
2018-06-27T23:01:36.502Z,16.70
2018-06-27T23:04:15.972Z,16.70
2018-06-27T23:06:45.108Z,16.60
2018-06-27T23:09:14.204Z,16.50
2018-06-27T23:11:44.877Z,16.40
2018-06-27T23:14:13.929Z,16.50
2018-06-27T23:16:44.254Z,16.40
2018-06-27T23:19:13.203Z,16.50
2018-06-27T23:24:10.837Z,16.40
2018-06-27T23:26:39.879Z,16.30
2018-06-27T23:31:45.128Z,16.20
2018-06-27T23:34:14.060Z,16.30
2018-06-27T23:36:43.096Z,16.20
2018-06-27T23:39:14.355Z,16.10
2018-06-27T23:41:43.863Z,16.10
2018-06-27T23:44:12.872Z,16.10
2018-06-27T23:46:42.494Z,16.10
2018-06-27T23:49:11.543Z,16.10
2018-06-27T23:51:40.860Z,16.00
2018-06-27T23:54:11.400Z,16.00
2018-06-27T23:56:40.336Z,16.00
2018-06-27T23:59:10.994Z,16.00
